Time;durP1;ratioP1;P1;durP2;ratioP2;P2;SDS_P1;SDS_P2;PMS_P1;PMS_P2;Temp;Humidity;BMP_temperature;BMP_pressure;BME280_temperature;BME280_humidity;BME280_pressure;Samples;Min_cycle;Max_cycle;Signal;HPM_P1;HPM_P2
2023/11/19 00:00:16;;;;;;;6.18;4.68;;;3.80;99.90;;;;;;5051963;28;20021;-79
2023/11/19 00:02:42;;;;;;;6.30;4.63;;;3.80;99.90;;;;;;5049365;28;20025;-79
2023/11/19 00:05:11;;;;;;;6.38;4.95;;;3.70;99.90;;;;;;5049894;28;20590;-79
2023/11/19 00:07:40;;;;;;;6.22;4.55;;;3.80;99.90;;;;;;5045352;28;20091;-81
2023/11/19 00:10:11;;;;;;;8.45;5.32;;;3.80;99.90;;;;;;5045576;28;20557;-80
2023/11/19 00:12:39;;;;;;;6.22;4.55;;;3.80;99.90;;;;;;5044820;28;20108;-81
2023/11/19 00:15:11;;;;;;;6.72;4.55;;;3.80;99.90;;;;;;5045939;28;20042;-80
2023/11/19 00:18:31;;;;;;;5.80;4.38;;;3.80;99.90;;;;;;5060918;28;20037;-80
2023/11/19 00:20:56;;;;;;;6.95;4.85;;;3.80;99.90;;;;;;5013230;28;20042;-80
2023/11/19 00:23:23;;;;;;;6.10;4.63;;;3.90;99.90;;;;;;5023728;28;20063;-81
2023/11/19 00:25:48;;;;;;;8.73;5.32;;;3.90;99.90;;;;;;5047622;28;20044;-82
2023/11/19 00:28:14;;;;;;;7.20;5.00;;;3.90;99.90;;;;;;5049778;28;20495;-80
2023/11/19 00:30:43;;;;;;;6.72;4.70;;;3.90;99.90;;;;;;5057843;28;20029;-80
2023/11/19 00:33:08;;;;;;;6.30;4.65;;;3.90;99.90;;;;;;5044049;28;20048;-81
2023/11/19 00:35:37;;;;;;;6.50;5.00;;;3.90;99.90;;;;;;5045911;28;20028;-80
2023/11/19 00:38:03;;;;;;;7.35;5.00;;;3.90;99.90;;;;;;5037746;28;20057;-81
2023/11/19 00:40:29;;;;;;;6.75;5.00;;;3.90;99.90;;;;;;5073106;28;20025;-80
2023/11/19 00:42:55;;;;;;;6.85;4.88;;;3.90;99.90;;;;;;5049117;28;20101;-80
2023/11/19 00:45:21;;;;;;;7.05;5.38;;;3.90;99.90;;;;;;5054021;28;20060;-81
2023/11/19 00:47:47;;;;;;;6.82;5.43;;;4.00;99.90;;;;;;5055904;28;20033;-81
2023/11/19 00:50:13;;;;;;;7.80;5.05;;;4.00;99.90;;;;;;5047093;28;20029;-81
2023/11/19 00:52:38;;;;;;;5.75;4.43;;;4.10;99.90;;;;;;5034602;28;20091;-81
2023/11/19 00:55:05;;;;;;;10.82;4.75;;;4.10;99.90;;;;;;5056385;28;20021;-79
2023/11/19 00:57:35;;;;;;;5.85;4.38;;;4.10;99.90;;;;;;5055019;28;20460;-81
2023/11/19 01:00:06;;;;;;;5.22;4.25;;;4.10;99.90;;;;;;5052442;28;20036;-80
2023/11/19 01:02:34;;;;;;;4.80;4.00;;;4.10;99.90;;;;;;5054365;28;20116;-80
2023/11/19 01:05:00;;;;;;;4.90;3.58;;;4.10;99.90;;;;;;5059031;28;20055;-80
2023/11/19 01:07:26;;;;;;;4.47;3.72;;;4.20;99.90;;;;;;5049167;28;20040;-80
2023/11/19 01:09:52;;;;;;;4.72;3.90;;;4.20;99.90;;;;;;5020878;28;20022;-80
2023/11/19 01:12:18;;;;;;;4.80;4.00;;;4.20;99.90;;;;;;5046582;28;20096;-80
2023/11/19 01:14:44;;;;;;;4.65;3.85;;;4.20;99.90;;;;;;5029894;28;20029;-80
2023/11/19 01:17:09;;;;;;;4.95;3.63;;;4.20;99.90;;;;;;5047888;28;20033;-80
2023/11/19 01:19:35;;;;;;;5.18;3.75;;;4.20;99.90;;;;;;5025829;28;20033;-80
2023/11/19 01:22:01;;;;;;;3.83;3.05;;;4.20;99.90;;;;;;5045945;28;20106;-80
2023/11/19 01:24:28;;;;;;;3.42;3.05;;;4.10;99.90;;;;;;5044473;28;20033;-79
2023/11/19 01:26:54;;;;;;;4.10;3.28;;;4.20;99.90;;;;;;5042498;28;20045;-79
2023/11/19 01:29:20;;;;;;;3.80;3.15;;;4.20;99.90;;;;;;5047863;28;20052;-80
2023/11/19 01:31:47;;;;;;;5.03;3.25;;;4.30;99.90;;;;;;5025547;28;20068;-80
2023/11/19 01:34:12;;;;;;;4.28;3.17;;;4.30;99.90;;;;;;5047990;28;20021;-79
2023/11/19 01:36:39;;;;;;;4.85;3.15;;;4.30;99.90;;;;;;5032300;28;20056;-80
2023/11/19 01:39:05;;;;;;;4.90;3.92;;;4.40;99.90;;;;;;5027900;28;20175;-81
2023/11/19 01:41:38;;;;;;;4.15;3.45;;;4.40;99.90;;;;;;5051010;28;20112;-80
2023/11/19 01:44:06;;;;;;;3.65;3.10;;;4.40;99.90;;;;;;5039116;28;20407;-80
2023/11/19 01:46:35;;;;;;;3.33;2.88;;;4.30;99.90;;;;;;5034093;28;20187;-80
2023/11/19 01:49:02;;;;;;;3.97;3.17;;;4.30;99.90;;;;;;5043080;28;20059;-80
2023/11/19 01:51:28;;;;;;;5.30;3.00;;;4.40;99.90;;;;;;5046215;28;20124;-80
2023/11/19 01:53:56;;;;;;;5.97;3.28;;;4.40;99.90;;;;;;5043465;28;20495;-80
2023/11/19 01:56:22;;;;;;;3.28;2.70;;;4.40;99.90;;;;;;5048095;28;20018;-80
2023/11/19 01:58:49;;;;;;;4.72;3.00;;;4.40;99.90;;;;;;5040869;28;20040;-80
2023/11/19 02:01:15;;;;;;;3.83;3.00;;;4.40;99.90;;;;;;5042966;28;20841;-80
2023/11/19 02:03:41;;;;;;;2.63;2.42;;;4.40;99.90;;;;;;5042836;28;20037;-79
2023/11/19 02:06:10;;;;;;;3.13;2.75;;;4.30;99.90;;;;;;5050427;28;20030;-80
2023/11/19 02:08:36;;;;;;;4.78;2.65;;;4.30;99.90;;;;;;5040450;28;20079;-80
2023/11/19 02:11:03;;;;;;;3.47;2.83;;;4.40;99.90;;;;;;5055028;28;20036;-79
2023/11/19 02:13:29;;;;;;;3.58;2.65;;;4.40;99.90;;;;;;5033926;28;20527;-80
2023/11/19 02:15:55;;;;;;;4.35;3.60;;;4.40;99.90;;;;;;5044645;28;20033;-79
2023/11/19 02:18:23;;;;;;;3.88;3.47;;;4.50;99.90;;;;;;5041261;28;20036;-80
2023/11/19 02:20:50;;;;;;;5.47;3.78;;;4.50;99.90;;;;;;5046507;28;20119;-79
2023/11/19 02:23:16;;;;;;;4.57;3.80;;;4.50;99.90;;;;;;5023602;28;20049;-79
2023/11/19 02:25:45;;;;;;;3.70;3.28;;;4.50;99.90;;;;;;5055247;28;20550;-80
2023/11/19 02:28:11;;;;;;;3.67;3.20;;;4.40;99.90;;;;;;5043342;28;20037;-79
2023/11/19 02:30:38;;;;;;;4.53;3.25;;;4.50;99.90;;;;;;5052824;28;20033;-80
2023/11/19 02:33:07;;;;;;;4.65;3.22;;;4.50;99.90;;;;;;5050398;28;20082;-80
2023/11/19 02:35:33;;;;;;;4.05;3.38;;;4.40;99.90;;;;;;5054249;28;20100;-80
2023/11/19 02:38:01;;;;;;;4.30;3.35;;;4.30;99.90;;;;;;5045135;28;20078;-80
2023/11/19 02:40:26;;;;;;;4.50;3.45;;;4.30;99.90;;;;;;5051874;28;20032;-81
2023/11/19 02:42:55;;;;;;;4.88;3.42;;;4.40;99.90;;;;;;5033721;28;20037;-80
2023/11/19 02:45:22;;;;;;;4.60;3.42;;;4.40;99.90;;;;;;5053231;28;20025;-81
2023/11/19 02:47:48;;;;;;;3.85;3.35;;;4.40;99.90;;;;;;5045334;28;20107;-81
2023/11/19 02:50:16;;;;;;;4.53;3.10;;;4.40;99.90;;;;;;5039742;28;20116;-81
2023/11/19 02:52:43;;;;;;;3.95;3.25;;;4.40;99.90;;;;;;5038356;28;20048;-81
2023/11/19 02:55:12;;;;;;;4.47;3.38;;;4.50;99.90;;;;;;5040824;28;20040;-81
2023/11/19 02:57:48;;;;;;;3.97;3.50;;;4.50;99.90;;;;;;5047589;28;20013;-81
2023/11/19 03:00:23;;;;;;;5.50;3.92;;;4.60;99.90;;;;;;5042227;28;20026;-80
2023/11/19 03:02:58;;;;;;;4.22;3.40;;;4.60;99.90;;;;;;5047226;28;20112;-80
2023/11/19 03:05:24;;;;;;;;;;;4.60;99.90;;;;;;5054592;28;20038;-81
2023/11/19 03:07:50;;;;;;;4.20;3.33;;;4.60;99.90;;;;;;5036127;28;19912;-81
2023/11/19 03:10:16;;;;;;;4.40;3.50;;;4.60;99.90;;;;;;5050935;28;20051;-80
2023/11/19 03:12:43;;;;;;;5.05;3.70;;;4.60;99.90;;;;;;5047766;28;20043;-80
2023/11/19 03:15:09;;;;;;;4.07;3.67;;;4.60;99.90;;;;;;5041662;28;20026;-81
2023/11/19 03:17:40;;;;;;;4.70;3.17;;;4.60;99.90;;;;;;5051249;28;20491;-81
2023/11/19 03:20:09;;;;;;;4.57;3.30;;;4.60;99.90;;;;;;5040443;28;20037;-81
2023/11/19 03:22:38;;;;;;;4.57;3.17;;;4.60;99.90;;;;;;5041160;28;20513;-81
2023/11/19 03:25:08;;;;;;;3.97;3.55;;;4.60;99.90;;;;;;5050619;28;20033;-81
2023/11/19 03:27:35;;;;;;;4.50;3.25;;;4.60;99.90;;;;;;5048994;28;20040;-82
2023/11/19 03:30:04;;;;;;;4.63;2.83;;;4.50;99.90;;;;;;5048600;28;20033;-80
2023/11/19 03:32:35;;;;;;;4.15;2.97;;;4.50;99.90;;;;;;5058830;28;20109;-82
2023/11/19 03:35:04;;;;;;;3.35;2.80;;;4.50;99.90;;;;;;5053236;28;20033;-81
2023/11/19 03:37:30;;;;;;;4.80;2.83;;;4.50;99.90;;;;;;5059492;28;20025;-80
2023/11/19 03:39:59;;;;;;;3.63;2.95;;;4.40;99.90;;;;;;5054036;28;20041;-82
2023/11/19 03:42:30;;;;;;;3.53;3.00;;;4.50;99.90;;;;;;5054350;28;20033;-80
2023/11/19 03:44:56;;;;;;;2.70;2.50;;;4.50;99.90;;;;;;5050021;28;20122;-81
2023/11/19 03:47:22;;;;;;;5.43;3.35;;;4.50;99.90;;;;;;5060105;28;20382;-80
2023/11/19 03:49:49;;;;;;;4.40;2.97;;;4.60;99.90;;;;;;5053925;28;20061;-81
2023/11/19 03:52:15;;;;;;;4.55;3.10;;;4.50;99.90;;;;;;5057227;28;20033;-81
2023/11/19 03:54:42;;;;;;;4.05;3.20;;;4.60;99.90;;;;;;5051538;28;20403;-80
2023/11/19 03:57:10;;;;;;;3.83;2.60;;;4.70;99.90;;;;;;5067904;28;20407;-80
2023/11/19 03:59:36;;;;;;;2.53;2.30;;;4.70;99.90;;;;;;5057964;28;20494;-80
2023/11/19 04:02:03;;;;;;;3.75;2.42;;;4.70;99.90;;;;;;5039468;28;20047;-80
2023/11/19 04:04:32;;;;;;;3.13;2.33;;;4.70;99.90;;;;;;5057624;28;20060;-81
2023/11/19 04:06:58;;;;;;;4.22;3.13;;;4.70;99.90;;;;;;5054441;28;20048;-81
2023/11/19 04:09:24;;;;;;;4.47;3.05;;;4.70;99.90;;;;;;5055859;28;20036;-80
2023/11/19 04:11:50;;;;;;;3.20;2.45;;;4.70;99.90;;;;;;5055886;28;20041;-80
2023/11/19 04:14:18;;;;;;;3.47;2.72;;;4.60;99.90;;;;;;5042949;28;20052;-80
2023/11/19 04:16:44;;;;;;;3.78;2.63;;;4.60;99.90;;;;;;5060191;28;20095;-80
2023/11/19 04:19:10;;;;;;;2.80;2.50;;;4.70;99.90;;;;;;5046808;28;20104;-80
2023/11/19 04:21:36;;;;;;;3.00;2.25;;;4.70;99.90;;;;;;5050747;28;20575;-81
2023/11/19 04:24:02;;;;;;;3.63;2.63;;;4.70;99.90;;;;;;5043172;28;20032;-80
2023/11/19 04:26:28;;;;;;;8.18;2.80;;;4.60;99.90;;;;;;5055515;28;20542;-80
2023/11/19 04:28:57;;;;;;;3.15;2.83;;;4.70;99.90;;;;;;5047248;28;20069;-81
2023/11/19 04:31:23;;;;;;;3.78;3.15;;;4.70;99.90;;;;;;5044235;28;20029;-80
2023/11/19 04:33:49;;;;;;;3.40;2.65;;;4.70;99.90;;;;;;5032958;28;20033;-81
2023/11/19 04:36:19;;;;;;;2.50;2.25;;;4.70;99.90;;;;;;5045122;28;20031;-80
2023/11/19 04:38:44;;;;;;;2.75;2.05;;;4.80;99.90;;;;;;5046630;28;20103;-81
2023/11/19 04:41:10;;;;;;;2.70;2.40;;;4.80;99.90;;;;;;5049809;28;20063;-81
2023/11/19 04:43:36;;;;;;;2.70;2.38;;;4.90;99.90;;;;;;5043236;28;20061;-81
2023/11/19 04:46:04;;;;;;;2.88;2.58;;;4.80;99.90;;;;;;5041740;28;20032;-80
2023/11/19 04:48:30;;;;;;;2.55;2.25;;;4.80;99.90;;;;;;5049278;28;20072;-81
2023/11/19 04:50:55;;;;;;;2.33;2.13;;;4.80;99.90;;;;;;5050729;28;20045;-80
2023/11/19 04:53:21;;;;;;;2.75;2.13;;;4.80;99.90;;;;;;5050185;28;20038;-81
2023/11/19 04:55:47;;;;;;;2.58;2.17;;;4.90;99.90;;;;;;5049235;28;20036;-81
2023/11/19 04:58:13;;;;;;;2.85;2.28;;;4.80;99.90;;;;;;5052060;28;20033;-80
2023/11/19 05:00:39;;;;;;;3.08;2.78;;;4.80;99.90;;;;;;5052660;28;20028;-82
2023/11/19 05:03:05;;;;;;;3.60;2.85;;;4.90;99.90;;;;;;5051860;28;20041;-82
2023/11/19 05:05:40;;;;;;;4.18;3.10;;;4.90;99.90;;;;;;5054941;28;20045;-82
2023/11/19 05:08:06;;;;;;;4.18;3.03;;;4.90;99.90;;;;;;5049612;28;20099;-81
2023/11/19 05:10:32;;;;;;;4.07;3.25;;;4.90;99.90;;;;;;5056644;28;20025;-82
2023/11/19 05:12:58;;;;;;;3.40;2.92;;;5.00;99.90;;;;;;5053266;28;20035;-82
2023/11/19 05:15:24;;;;;;;3.90;3.10;;;4.90;99.90;;;;;;5044615;28;20069;-82
2023/11/19 05:17:49;;;;;;;3.65;3.05;;;5.00;99.90;;;;;;5049253;28;20057;-81
2023/11/19 05:20:15;;;;;;;3.25;2.63;;;5.00;99.90;;;;;;5036319;28;20669;-82
2023/11/19 05:22:42;;;;;;;4.00;2.83;;;5.00;99.90;;;;;;5036877;28;20030;-82
2023/11/19 05:25:11;;;;;;;3.42;2.97;;;5.00;99.90;;;;;;5050718;28;20022;-81
2023/11/19 05:27:37;;;;;;;3.70;3.17;;;5.00;99.90;;;;;;5046614;28;20066;-82
2023/11/19 05:30:07;;;;;;;3.33;3.03;;;5.00;99.90;;;;;;5033136;28;20055;-82
2023/11/19 05:32:33;;;;;;;4.45;3.50;;;5.00;99.90;;;;;;5051890;28;20033;-82
2023/11/19 05:34:59;;;;;;;5.00;3.50;;;5.10;99.90;;;;;;5047201;28;20037;-83
2023/11/19 05:37:25;;;;;;;4.15;3.35;;;5.10;99.90;;;;;;5056182;28;20033;-81
2023/11/19 05:39:51;;;;;;;5.00;3.75;;;5.20;99.90;;;;;;5046157;28;20041;-81
2023/11/19 05:42:17;;;;;;;4.72;3.15;;;5.10;99.90;;;;;;5045500;28;20128;-82
2023/11/19 05:44:42;;;;;;;7.00;2.92;;;5.10;99.90;;;;;;5044744;28;20036;-82
2023/11/19 05:47:08;;;;;;;4.28;3.28;;;5.10;99.90;;;;;;5037229;28;20044;-81
2023/11/19 05:49:34;;;;;;;2.75;2.40;;;5.10;99.90;;;;;;5049098;28;20040;-82
2023/11/19 05:52:01;;;;;;;2.92;2.50;;;5.10;99.90;;;;;;5032176;28;20407;-82
2023/11/19 05:54:27;;;;;;;2.28;2.08;;;5.10;99.90;;;;;;5055120;28;20030;-83
2023/11/19 05:56:54;;;;;;;2.92;2.42;;;5.20;99.90;;;;;;5046518;28;20030;-83
2023/11/19 05:59:22;;;;;;;3.50;2.50;;;5.30;99.90;;;;;;5044768;28;20029;-83
2023/11/19 06:01:48;;;;;;;3.45;2.60;;;5.40;99.90;;;;;;5045851;28;20039;-83
2023/11/19 06:04:14;;;;;;;4.60;3.47;;;5.40;99.90;;;;;;5048154;28;20044;-83
2023/11/19 06:06:40;;;;;;;123.10;8.48;;;5.60;99.90;;;;;;5044920;28;20036;-83
2023/11/19 06:09:06;;;;;;;3.60;3.10;;;5.70;99.90;;;;;;5048246;28;20051;-82
2023/11/19 06:11:34;;;;;;;10.30;3.20;;;5.70;99.90;;;;;;5054073;28;20083;-82
2023/11/19 06:14:00;;;;;;;8.30;2.92;;;5.80;99.90;;;;;;5030918;28;20033;-83
2023/11/19 06:16:25;;;;;;;6.03;2.60;;;5.80;99.90;;;;;;5047416;28;20082;-82
2023/11/19 06:18:51;;;;;;;3.13;2.22;;;5.90;99.90;;;;;;5039373;28;20051;-82
2023/11/19 06:21:17;;;;;;;4.43;2.30;;;5.90;99.90;;;;;;5043742;28;20048;-82
2023/11/19 06:23:42;;;;;;;3.80;2.40;;;6.00;99.90;;;;;;5040863;28;20029;-82
2023/11/19 06:26:08;;;;;;;2.92;2.42;;;6.10;99.90;;;;;;5052088;28;20052;-82
2023/11/19 06:28:34;;;;;;;11.77;3.17;;;6.10;99.90;;;;;;5048635;28;20040;-82
2023/11/19 06:31:00;;;;;;;99.32;6.90;;;6.20;99.90;;;;;;5030881;28;20094;-83
2023/11/19 06:33:27;;;;;;;90.53;6.93;;;6.20;99.90;;;;;;5033970;28;20079;-82
2023/11/19 06:35:54;;;;;;;40.53;4.82;;;6.30;99.90;;;;;;5046173;28;20021;-82
2023/11/19 06:38:20;;;;;;;323.15;18.40;;;6.30;99.90;;;;;;5029514;28;20028;-81
2023/11/19 06:40:46;;;;;;;2.42;1.80;;;6.40;99.90;;;;;;5047279;28;20061;-82
2023/11/19 06:43:11;;;;;;;2.50;1.92;;;6.40;99.90;;;;;;5040766;28;20750;-82
2023/11/19 06:45:37;;;;;;;11.73;2.38;;;6.50;99.90;;;;;;5047527;28;20501;-82
2023/11/19 06:48:04;;;;;;;182.30;12.05;;;6.50;99.90;;;;;;5042290;28;20045;-82
2023/11/19 06:50:31;;;;;;;9.48;1.90;;;6.50;99.90;;;;;;5054178;28;20041;-82
2023/11/19 06:52:56;;;;;;;40.30;3.55;;;6.60;99.90;;;;;;5053843;28;20063;-82
2023/11/19 06:55:22;;;;;;;30.73;3.20;;;6.60;99.90;;;;;;5053701;28;20026;-82
2023/11/19 06:57:48;;;;;;;8.93;2.35;;;6.70;99.90;;;;;;5049427;28;20033;-82
2023/11/19 07:00:14;;;;;;;2.33;1.90;;;6.70;99.90;;;;;;5050733;28;20021;-82
2023/11/19 07:02:40;;;;;;;19.52;2.67;;;6.80;99.90;;;;;;5049336;28;20029;-82
2023/11/19 07:05:06;;;;;;;6.03;2.13;;;6.90;99.90;;;;;;5045514;28;20040;-82
2023/11/19 07:07:35;;;;;;;112.53;6.75;;;6.90;99.90;;;;;;5051954;28;20029;-82
2023/11/19 07:10:02;;;;;;;30.75;3.03;;;6.90;99.90;;;;;;5043572;28;20029;-82
2023/11/19 07:12:28;;;;;;;4.38;1.80;;;7.00;99.90;;;;;;5035329;28;20052;-82
2023/11/19 07:14:55;;;;;;;13.15;2.80;;;7.00;99.90;;;;;;5036938;28;20499;-82
2023/11/19 07:17:21;;;;;;;99.65;7.03;;;7.00;99.90;;;;;;5054163;28;20032;-82
2023/11/19 07:19:49;;;;;;;26.13;3.75;;;7.10;99.90;;;;;;5051519;28;20037;-82
2023/11/19 07:22:15;;;;;;;3.95;2.60;;;7.10;99.90;;;;;;5053636;28;20032;-82
2023/11/19 07:24:41;;;;;;;29.05;3.30;;;7.20;99.90;;;;;;5045826;28;20033;-82
2023/11/19 07:27:08;;;;;;;5.68;3.00;;;7.20;99.90;;;;;;5056964;28;20033;-81
2023/11/19 07:29:35;;;;;;;94.88;7.43;;;7.20;99.90;;;;;;5053968;28;20048;-82
2023/11/19 07:32:01;;;;;;;65.45;5.35;;;7.30;99.90;;;;;;5054218;28;20050;-82
2023/11/19 07:34:29;;;;;;;205.55;13.15;;;7.30;99.90;;;;;;5051989;28;20033;-82
2023/11/19 07:36:59;;;;;;;36.17;4.38;;;7.30;99.90;;;;;;5051595;28;20571;-81
2023/11/19 07:39:25;;;;;;;32.47;4.40;;;7.30;99.90;;;;;;5045886;28;20605;-83
2023/11/19 07:41:51;;;;;;;7.22;2.30;;;7.40;99.90;;;;;;5052296;28;20029;-83
2023/11/19 07:44:17;;;;;;;99.95;10.77;;;7.40;99.90;;;;;;5045537;28;20037;-83
2023/11/19 07:46:44;;;;;;;165.73;11.05;;;7.40;99.90;;;;;;5031681;28;20040;-84
2023/11/19 07:49:13;;;;;;;45.63;3.95;;;7.50;99.90;;;;;;5037895;28;20040;-82
2023/11/19 07:51:41;;;;;;;59.63;5.85;;;7.50;99.90;;;;;;5037566;28;20061;-82
2023/11/19 07:54:08;;;;;;;149.23;7.13;;;7.50;99.90;;;;;;5049847;28;20029;-82
2023/11/19 07:56:37;;;;;;;132.85;10.63;;;7.50;99.90;;;;;;5045278;28;20063;-83
2023/11/19 07:59:03;;;;;;;1.13;0.98;;;7.50;99.90;;;;;;5046742;28;20033;-81
2023/11/19 08:01:28;;;;;;;29.10;2.30;;;7.50;99.90;;;;;;5039878;28;20029;-83
2023/11/19 08:03:54;;;;;;;1.30;0.82;;;7.50;99.90;;;;;;5041116;28;20087;-83
2023/11/19 08:06:20;;;;;;;31.15;2.30;;;7.60;99.90;;;;;;5052317;28;20021;-82
2023/11/19 08:08:47;;;;;;;8.32;0.98;;;7.70;99.90;;;;;;5048305;28;20032;-83
2023/11/19 08:11:13;;;;;;;1.67;0.80;;;7.70;99.90;;;;;;5054229;28;20427;-82
2023/11/19 08:13:39;;;;;;;102.45;5.68;;;7.70;99.90;;;;;;5031542;28;20651;-82
2023/11/19 08:16:06;;;;;;;32.45;2.53;;;7.80;99.90;;;;;;5019623;28;20072;-82
2023/11/19 08:18:31;;;;;;;4.78;0.90;;;7.80;99.90;;;;;;5047900;28;20039;-82
2023/11/19 08:20:59;;;;;;;103.97;5.03;;;7.80;99.90;;;;;;5051700;28;20032;-82
2023/11/19 08:23:25;;;;;;;1.33;1.05;;;7.80;99.90;;;;;;5039334;28;20029;-83
2023/11/19 08:25:52;;;;;;;188.77;10.25;;;7.80;99.90;;;;;;5051641;28;20028;-83
2023/11/19 08:28:18;;;;;;;149.10;9.98;;;7.90;99.90;;;;;;5044674;28;20090;-82
2023/11/19 08:30:44;;;;;;;26.63;2.22;;;7.90;99.90;;;;;;5034972;28;20037;-83
2023/11/19 08:33:10;;;;;;;74.00;3.90;;;7.90;99.90;;;;;;5040631;28;20037;-82
2023/11/19 08:35:35;;;;;;;25.95;2.15;;;7.90;99.90;;;;;;5045568;28;20039;-83
2023/11/19 08:38:01;;;;;;;30.35;3.10;;;8.00;99.90;;;;;;5045219;28;20507;-82
2023/11/19 08:40:28;;;;;;;2.95;1.23;;;8.00;99.90;;;;;;5054499;28;20075;-81
2023/11/19 08:42:54;;;;;;;26.35;2.22;;;8.10;99.90;;;;;;5046107;28;20037;-81
2023/11/19 08:45:19;;;;;;;138.20;9.68;;;8.10;99.90;;;;;;5045302;28;20383;-83
2023/11/19 08:47:45;;;;;;;126.57;6.30;;;8.10;99.90;;;;;;5042153;28;20078;-82
2023/11/19 08:50:11;;;;;;;11.70;1.98;;;8.10;99.90;;;;;;5036746;28;20034;-81
2023/11/19 08:52:37;;;;;;;16.13;2.35;;;8.20;99.90;;;;;;5047389;28;20112;-82
2023/11/19 08:55:07;;;;;;;181.18;12.82;;;8.20;99.90;;;;;;5046898;28;20052;-82
2023/11/19 08:57:33;;;;;;;217.48;10.73;;;8.20;99.90;;;;;;5032904;28;20033;-82
2023/11/19 08:59:59;;;;;;;43.83;5.57;;;8.30;99.90;;;;;;5041048;28;20091;-81
2023/11/19 09:02:25;;;;;;;115.00;6.38;;;8.30;99.90;;;;;;5042907;28;20033;-82
2023/11/19 09:04:51;;;;;;;39.58;2.63;;;8.30;99.90;;;;;;5028206;28;20112;-82
2023/11/19 09:07:17;;;;;;;25.13;3.03;;;8.40;99.90;;;;;;5040614;28;20105;-81
2023/11/19 09:09:43;;;;;;;9.35;1.65;;;8.40;99.90;;;;;;5042151;28;20063;-81
2023/11/19 09:12:08;;;;;;;4.32;1.80;;;8.50;99.90;;;;;;5040479;28;20033;-83
2023/11/19 09:14:34;;;;;;;5.72;2.33;;;8.50;99.90;;;;;;5016816;28;20090;-81
2023/11/19 09:17:00;;;;;;;2.42;2.17;;;8.60;99.90;;;;;;5039447;28;20029;-80
2023/11/19 09:19:26;;;;;;;195.85;10.75;;;8.60;99.90;;;;;;5033793;28;20020;-82
2023/11/19 09:21:53;;;;;;;41.88;6.18;;;8.60;99.90;;;;;;5039209;28;20025;-81
2023/11/19 09:24:18;;;;;;;85.40;8.38;;;8.70;99.90;;;;;;5042199;28;20403;-82
2023/11/19 09:26:44;;;;;;;118.20;8.18;;;8.80;99.90;;;;;;5046638;28;20040;-81
2023/11/19 09:29:11;;;;;;;87.75;7.15;;;8.90;99.90;;;;;;5034300;28;20029;-82
2023/11/19 09:31:40;;;;;;;62.25;5.72;;;8.90;99.90;;;;;;5046821;28;20044;-81
2023/11/19 09:34:06;;;;;;;2.28;2.08;;;9.00;99.90;;;;;;5035790;28;20029;-81
2023/11/19 09:36:31;;;;;;;93.20;8.30;;;9.10;99.90;;;;;;5023729;28;20325;-82
2023/11/19 09:38:59;;;;;;;20.50;2.45;;;9.30;99.90;;;;;;5039945;28;20032;-82
2023/11/19 09:41:27;;;;;;;195.15;13.63;;;9.40;99.90;;;;;;5025929;28;20156;-81
2023/11/19 09:43:53;;;;;;;75.18;7.43;;;9.40;99.90;;;;;;5042414;28;20067;-81
2023/11/19 09:46:20;;;;;;;108.35;8.25;;;9.40;99.90;;;;;;5028412;28;20049;-83
2023/11/19 09:48:48;;;;;;;8.40;1.83;;;9.50;99.90;;;;;;5045233;28;20036;-81
2023/11/19 09:51:14;;;;;;;352.80;14.40;;;9.50;99.90;;;;;;5048704;28;20084;-81
2023/11/19 09:53:39;;;;;;;3.22;1.40;;;9.50;99.90;;;;;;5031303;28;20041;-82
2023/11/19 09:56:07;;;;;;;56.88;4.03;;;9.50;99.90;;;;;;5038656;28;20098;-81
2023/11/19 09:58:36;;;;;;;50.22;4.93;;;9.60;99.90;;;;;;5036785;28;20083;-83
2023/11/19 10:01:10;;;;;;;251.18;11.68;;;9.60;99.90;;;;;;5039240;28;20026;-83
2023/11/19 10:03:39;;;;;;;63.13;5.20;;;9.70;99.90;;;;;;5040890;28;20392;-82
2023/11/19 10:06:06;;;;;;;5.78;1.25;;;9.70;99.90;;;;;;5046723;28;20063;-82
2023/11/19 10:08:33;;;;;;;64.05;4.22;;;9.80;99.90;;;;;;5009689;28;20033;-83
2023/11/19 10:10:59;;;;;;;2.80;1.10;;;9.80;99.90;;;;;;5042570;28;20029;-82
2023/11/19 10:13:29;;;;;;;4.90;1.30;;;9.90;99.90;;;;;;5037645;28;20041;-82
2023/11/19 10:15:57;;;;;;;4.32;1.30;;;9.90;99.90;;;;;;5047076;28;20029;-82
2023/11/19 10:18:26;;;;;;;2.72;1.30;;;10.00;99.90;;;;;;5032309;28;20033;-81
2023/11/19 10:20:52;;;;;;;3.40;1.20;;;10.00;99.90;;;;;;5046957;28;20090;-82
2023/11/19 10:23:19;;;;;;;2.75;1.02;;;10.10;99.90;;;;;;5054388;28;20025;-82
2023/11/19 10:25:45;;;;;;;2.45;1.33;;;10.10;99.90;;;;;;5040846;28;20048;-83
2023/11/19 10:28:10;;;;;;;3.10;1.05;;;10.10;99.90;;;;;;5039162;28;20063;-83
2023/11/19 10:30:36;;;;;;;101.85;7.05;;;10.10;99.90;;;;;;5056741;28;20033;-82
2023/11/19 10:33:17;;;;;;;40.72;5.63;;;10.20;99.90;;;;;;5051694;28;20114;-81
2023/11/19 10:35:54;;;;;;;4.38;1.10;;;10.20;99.90;;;;;;5051512;28;20029;-81
2023/11/19 10:38:23;;;;;;;2.28;1.05;;;10.20;99.90;;;;;;5045488;28;20033;-81
2023/11/19 10:40:50;;;;;;;4.10;1.08;;;10.10;99.90;;;;;;5050688;28;20095;-81
2023/11/19 10:43:17;;;;;;;1.70;0.90;;;10.10;99.90;;;;;;5052766;28;20042;-82
2023/11/19 10:45:52;;;;;;;297.40;20.48;;;10.10;99.90;;;;;;5053770;28;20040;-82
2023/11/19 10:48:18;;;;;;;0.80;0.70;;;10.10;99.90;;;;;;5048649;28;20431;-84
2023/11/19 10:50:45;;;;;;;2.92;0.90;;;10.00;99.90;;;;;;5044214;28;20097;-83
2023/11/19 10:53:18;;;;;;;1.30;1.02;;;10.10;99.90;;;;;;5044537;28;20037;-83
2023/11/19 10:55:47;;;;;;;1.30;1.08;;;10.10;99.90;;;;;;5050167;28;20103;-82
2023/11/19 10:58:19;;;;;;;1.40;0.90;;;10.10;99.90;;;;;;5047236;28;20029;-84
2023/11/19 11:00:47;;;;;;;4.85;0.90;;;10.10;99.90;;;;;;5038434;28;20490;-84
2023/11/19 11:03:39;;;;;;;3.78;1.10;;;10.00;99.90;;;;;;5048621;28;20488;-84
2023/11/19 11:06:06;;;;;;;3.80;2.25;;;9.90;99.90;;;;;;5048947;28;20051;-83
2023/11/19 11:08:35;;;;;;;2.80;1.20;;;9.90;99.90;;;;;;5043923;28;20049;-84
2023/11/19 11:11:04;;;;;;;41.15;3.00;;;9.90;99.90;;;;;;5030688;28;20036;-83
2023/11/19 11:13:31;;;;;;;7.78;0.90;;;9.90;99.90;;;;;;5038125;28;20100;-82
2023/11/19 11:16:00;;;;;;;37.80;2.60;;;9.90;99.90;;;;;;5040966;28;20051;-81
2023/11/19 11:18:27;;;;;;;32.38;1.70;;;9.90;99.90;;;;;;5037826;28;20038;-81
2023/11/19 11:21:09;;;;;;;45.33;2.13;;;9.90;99.90;;;;;;5050744;28;20542;-81
2023/11/19 11:23:56;;;;;;;6.13;0.93;;;9.90;99.90;;;;;;5050458;28;20037;-81
2023/11/19 11:27:00;;;;;;;22.70;2.15;;;9.90;99.90;;;;;;5042627;28;20026;-81
2023/11/19 11:29:45;;;;;;;12.68;1.10;;;9.80;99.90;;;;;;5042610;28;20524;-79
2023/11/19 11:32:22;;;;;;;5.43;0.93;;;9.80;99.90;;;;;;5046327;28;20030;-79
2023/11/19 11:34:54;;;;;;;21.33;1.95;;;9.80;99.90;;;;;;5044312;28;20025;-80
2023/11/19 11:37:38;;;;;;;4.57;0.90;;;9.80;99.90;;;;;;5043404;28;20024;-79
2023/11/19 11:40:10;;;;;;;77.93;3.83;;;9.80;99.90;;;;;;5042067;28;20025;-81
2023/11/19 11:42:36;;;;;;;43.28;2.67;;;9.90;99.90;;;;;;5046384;28;20046;-82
2023/11/19 11:45:09;;;;;;;115.10;4.20;;;10.00;99.90;;;;;;5045495;28;20032;-82
2023/11/19 11:47:47;;;;;;;51.72;5.13;;;10.10;99.90;;;;;;5040534;28;20094;-80
2023/11/19 11:50:14;;;;;;;25.40;1.63;;;10.20;99.90;;;;;;5046629;28;20083;-81
2023/11/19 11:52:58;;;;;;;28.50;1.60;;;10.30;99.90;;;;;;5044677;28;20116;-81
2023/11/19 11:55:30;;;;;;;35.58;2.92;;;10.40;99.90;;;;;;5047687;28;20663;-82
2023/11/19 11:57:56;;;;;;;4.13;1.27;;;10.40;99.90;;;;;;5044336;28;20029;-81
2023/11/19 12:00:29;;;;;;;29.20;1.80;;;10.40;99.90;;;;;;5051702;28;20480;-82
2023/11/19 12:03:05;;;;;;;20.25;2.00;;;10.30;99.90;;;;;;5048486;28;20037;-82
2023/11/19 12:05:33;;;;;;;4.65;1.15;;;10.30;99.90;;;;;;5054572;28;20079;-82
2023/11/19 12:08:06;;;;;;;34.58;3.17;;;10.30;99.90;;;;;;5045119;28;20545;-82
2023/11/19 12:10:47;;;;;;;2.45;1.65;;;10.30;99.90;;;;;;5045418;28;20107;-83
2023/11/19 12:13:14;;;;;;;3.00;1.15;;;10.30;99.90;;;;;;5047374;28;20103;-82
2023/11/19 12:15:58;;;;;;;133.88;7.03;;;10.30;99.90;;;;;;5035920;28;20033;-81
2023/11/19 12:18:27;;;;;;;97.90;5.65;;;10.30;99.90;;;;;;5044391;28;20033;-82
2023/11/19 12:20:54;;;;;;;3.67;1.20;;;10.20;99.90;;;;;;5037464;28;20039;-82
2023/11/19 12:23:20;;;;;;;4.07;1.48;;;10.20;99.90;;;;;;5048206;28;20063;-83
2023/11/19 12:25:46;;;;;;;6.95;1.90;;;10.20;99.90;;;;;;5049642;28;20033;-82
2023/11/19 12:28:13;;;;;;;41.28;2.75;;;10.30;99.90;;;;;;5041088;28;20028;-82
2023/11/19 12:30:40;;;;;;;6.75;1.90;;;10.40;99.90;;;;;;5044741;28;20737;-83
2023/11/19 12:33:11;;;;;;;6.63;2.08;;;10.40;99.90;;;;;;5041968;28;20045;-84
2023/11/19 12:35:42;;;;;;;4.63;2.00;;;10.40;99.90;;;;;;5022502;28;20048;-84
2023/11/19 12:38:08;;;;;;;7.30;1.77;;;10.40;99.90;;;;;;5046164;28;20563;-82
2023/11/19 12:40:33;;;;;;;3.33;1.50;;;10.40;99.90;;;;;;5046276;28;20049;-84
2023/11/19 12:43:00;;;;;;;3.90;1.58;;;10.40;99.90;;;;;;5049082;28;20506;-83
2023/11/19 12:45:39;;;;;;;3.83;1.70;;;10.40;99.90;;;;;;5050313;28;20045;-84
2023/11/19 12:48:05;;;;;;;31.45;2.70;;;10.40;99.90;;;;;;5040939;28;20167;-82
2023/11/19 12:50:54;;;;;;;2.58;1.35;;;10.40;99.90;;;;;;5045484;28;20064;-83
2023/11/19 12:53:21;;;;;;;7.53;1.70;;;10.30;99.90;;;;;;5053007;28;20043;-83